Time;durP1;ratioP1;P1;durP2;ratioP2;P2;SDS_P1;SDS_P2;PMS_P1;PMS_P2;Temp;Humidity;BMP_temperature;BMP_pressure;BME280_temperature;BME280_humidity;BME280_pressure;Samples;Min_cycle;Max_cycle;Signal;HPM_P1;HPM_P2
2022/08/20 00:01:32;;;;;;;7.72;6.25;;;20.70;85.50;;;;;;4982722;28;20213;-63
2022/08/20 00:03:59;;;;;;;9.45;6.38;;;20.50;85.50;;;;;;5012907;28;20228;-64
2022/08/20 00:06:27;;;;;;;10.57;6.88;;;20.50;90.60;;;;;;5010531;28;20228;-64
2022/08/20 00:08:55;;;;;;;8.85;6.85;;;20.50;93.60;;;;;;5018637;28;20801;-64
2022/08/20 00:11:25;;;;;;;9.10;6.45;;;20.40;96.50;;;;;;5005453;28;20786;-64
2022/08/20 00:13:55;;;;;;;8.65;6.45;;;20.40;97.30;;;;;;5027271;28;21877;-64
2022/08/20 00:16:24;;;;;;;9.27;6.13;;;21.20;99.90;;;;;;4989956;28;20206;-64
2022/08/20 00:18:51;;;;;;;6.60;5.90;;;20.40;99.50;;;;;;5024187;28;20229;-65
2022/08/20 00:21:20;;;;;;;10.00;6.20;;;20.40;99.90;;;;;;5010319;28;20201;-64
2022/08/20 00:23:50;;;;;;;8.52;6.47;;;20.40;99.90;;;;;;5016966;28;20209;-64
2022/08/20 00:26:19;;;;;;;9.20;6.05;;;20.30;99.90;;;;;;5005103;28;20208;-64
2022/08/20 00:28:46;;;;;;;7.75;6.35;;;20.30;99.90;;;;;;5006952;28;20218;-63
2022/08/20 00:31:16;;;;;;;9.00;6.57;;;19.50;99.90;;;;;;4999572;28;20733;-64
2022/08/20 00:33:43;;;;;;;6.68;5.40;;;20.40;99.90;;;;;;4996820;28;20679;-65
2022/08/20 00:36:11;;;;;;;7.43;5.82;;;20.20;99.90;;;;;;5015562;28;20970;-65
2022/08/20 00:38:40;;;;;;;5.43;4.85;;;20.40;99.90;;;;;;5009325;28;20533;-65
2022/08/20 00:41:10;;;;;;;6.22;5.00;;;20.40;99.90;;;;;;5016648;28;21188;-65
2022/08/20 00:43:41;;;;;;;5.15;4.60;;;20.40;99.90;;;;;;5013350;28;20209;-65
2022/08/20 00:46:11;;;;;;;7.88;4.90;;;20.30;99.90;;;;;;5012998;28;20209;-64
2022/08/20 00:48:43;;;;;;;4.95;4.28;;;19.80;99.90;;;;;;4996202;28;20212;-65
2022/08/20 00:51:14;;;;;;;6.13;4.20;;;20.40;99.90;;;;;;5014882;28;20220;-64
2022/08/20 00:53:42;;;;;;;4.32;3.90;;;20.70;99.90;;;;;;4993347;28;20280;-64
2022/08/20 00:56:10;;;;;;;4.43;4.00;;;20.40;99.90;;;;;;5023292;28;20228;-64
2022/08/20 00:58:40;;;;;;;4.38;4.00;;;20.40;99.90;;;;;;5000163;28;20236;-65
2022/08/20 01:01:08;;;;;;;4.18;3.78;;;20.40;99.90;;;;;;5015183;28;21049;-64
2022/08/20 01:03:35;;;;;;;5.50;3.72;;;20.40;99.90;;;;;;5000079;28;20331;-64
2022/08/20 01:06:02;;;;;;;6.93;4.00;;;20.40;99.90;;;;;;5016410;28;20701;-64
2022/08/20 01:08:29;;;;;;;4.97;4.47;;;19.50;99.90;;;;;;5006020;28;20222;-65
2022/08/20 01:11:07;;;;;;;4.47;4.05;;;20.30;99.90;;;;;;5030683;28;20209;-64
2022/08/20 01:13:37;;;;;;;6.53;4.28;;;20.30;99.90;;;;;;5002276;28;20206;-64
2022/08/20 01:16:12;;;;;;;5.10;4.50;;;20.30;99.90;;;;;;5026956;28;20202;-65
2022/08/20 01:18:39;;;;;;;6.57;4.65;;;20.30;99.90;;;;;;4981479;28;20244;-65
2022/08/20 01:21:07;;;;;;;6.38;5.25;;;20.40;99.90;;;;;;5026107;28;20194;-66
2022/08/20 01:23:40;;;;;;;6.05;4.72;;;20.40;99.90;;;;;;5008735;28;20210;-65
2022/08/20 01:26:12;;;;;;;9.40;5.10;;;20.30;99.90;;;;;;5032440;28;20197;-64
2022/08/20 01:28:42;;;;;;;6.55;5.70;;;20.50;99.90;;;;;;5004982;28;20440;-65
2022/08/20 01:31:12;;;;;;;6.85;5.93;;;20.30;99.90;;;;;;5028813;28;20336;-64
2022/08/20 01:33:40;;;;;;;7.55;5.70;;;22.30;99.90;;;;;;4988359;28;20202;-65
2022/08/20 01:36:09;;;;;;;7.35;6.57;;;20.30;99.90;;;;;;5029135;28;20204;-65
2022/08/20 01:38:37;;;;;;;9.82;6.10;;;20.30;99.90;;;;;;5006172;28;20248;-65
2022/08/20 01:41:42;;;;;;;6.60;5.90;;;20.40;99.90;;;;;;5031766;28;20210;-65
2022/08/20 01:44:11;;;;;;;6.53;5.85;;;20.60;99.90;;;;;;4935769;28;20212;-65
2022/08/20 01:46:40;;;;;;;6.97;6.00;;;20.40;99.90;;;;;;5009901;28;20217;-64
2022/08/20 01:49:09;;;;;;;7.35;6.05;;;20.40;99.90;;;;;;4987426;28;20206;-64
2022/08/20 01:51:36;;;;;;;9.27;6.50;;;20.30;99.90;;;;;;5020458;28;20194;-65
2022/08/20 01:54:05;;;;;;;7.15;6.10;;;20.40;99.90;;;;;;5016713;28;20888;-65
2022/08/20 01:56:34;;;;;;;8.38;6.75;;;20.20;99.90;;;;;;5011466;28;20224;-64
2022/08/20 01:59:06;;;;;;;9.95;7.50;;;20.30;99.90;;;;;;5031832;28;20226;-65
2022/08/20 02:01:36;;;;;;;7.80;7.00;;;20.30;99.90;;;;;;5006757;28;20225;-66
2022/08/20 02:04:06;;;;;;;7.00;6.30;;;20.30;99.90;;;;;;5012167;28;20201;-65
2022/08/20 02:06:44;;;;;;;8.88;6.30;;;20.30;99.90;;;;;;5003128;28;20202;-66
2022/08/20 02:09:12;;;;;;;8.38;6.40;;;20.30;99.90;;;;;;5014544;28;20209;-66
2022/08/20 02:11:39;;;;;;;7.63;6.43;;;20.20;99.90;;;;;;4999502;28;20223;-64
2022/08/20 02:14:09;;;;;;;7.18;6.47;;;20.20;99.90;;;;;;5024437;28;20208;-65
2022/08/20 02:16:39;;;;;;;7.55;6.55;;;20.30;99.90;;;;;;5002689;28;20210;-65
2022/08/20 02:19:10;;;;;;;7.72;6.93;;;20.30;99.90;;;;;;5008259;28;20634;-65
2022/08/20 02:21:43;;;;;;;9.98;7.00;;;20.30;99.90;;;;;;4999862;28;20210;-64
2022/08/20 02:24:10;;;;;;;7.35;6.57;;;20.30;99.90;;;;;;5007827;28;20208;-66
2022/08/20 02:26:37;;;;;;;8.38;7.47;;;20.30;99.90;;;;;;5009122;28;20211;-64
2022/08/20 02:29:08;;;;;;;7.80;6.97;;;20.40;99.90;;;;;;5027741;28;20698;-66
2022/08/20 02:31:36;;;;;;;8.27;6.90;;;20.30;99.90;;;;;;4998348;28;21032;-65
2022/08/20 02:34:04;;;;;;;8.38;6.55;;;20.20;99.90;;;;;;5024687;28;20228;-65
2022/08/20 02:36:31;;;;;;;7.18;6.20;;;20.20;99.90;;;;;;4989964;28;20210;-65
2022/08/20 02:38:58;;;;;;;6.50;5.88;;;20.00;99.90;;;;;;5029811;28;20255;-65
2022/08/20 02:41:25;;;;;;;8.13;6.78;;;20.10;99.90;;;;;;5014177;28;20205;-65
2022/08/20 02:43:52;;;;;;;7.28;6.47;;;20.20;99.90;;;;;;5027741;28;20198;-66
2022/08/20 02:46:20;;;;;;;7.60;6.20;;;20.20;99.90;;;;;;5012083;28;21983;-66
2022/08/20 02:48:47;;;;;;;8.07;6.45;;;20.20;99.90;;;;;;5029094;28;20198;-66
2022/08/20 02:51:14;;;;;;;9.13;6.68;;;20.60;99.90;;;;;;4999101;28;20209;-65
2022/08/20 02:53:42;;;;;;;6.50;5.80;;;20.30;99.90;;;;;;5016111;28;20193;-65
2022/08/20 02:56:10;;;;;;;12.30;6.10;;;20.30;99.90;;;;;;5021765;28;20247;-65
2022/08/20 02:58:37;;;;;;;6.95;6.05;;;20.30;99.90;;;;;;5019995;28;20703;-66
2022/08/20 03:01:06;;;;;;;8.80;6.28;;;20.30;99.90;;;;;;5018278;28;20229;-65
2022/08/20 03:03:35;;;;;;;6.60;6.00;;;20.10;99.90;;;;;;5017952;28;20690;-66
2022/08/20 03:06:03;;;;;;;6.75;5.97;;;20.40;99.90;;;;;;5012783;28;20229;-64
2022/08/20 03:08:30;;;;;;;6.15;5.55;;;21.90;99.90;;;;;;5000089;28;20229;-66
2022/08/20 03:10:57;;;;;;;8.65;6.35;;;20.40;99.90;;;;;;5027286;28;20194;-66
2022/08/20 03:13:24;;;;;;;8.40;6.82;;;21.10;99.90;;;;;;5014057;28;20213;-65
2022/08/20 03:15:54;;;;;;;8.02;6.63;;;20.40;99.90;;;;;;5017735;28;20198;-65
2022/08/20 03:18:22;;;;;;;9.55;6.97;;;20.40;99.90;;;;;;5012141;28;20236;-65
2022/08/20 03:20:50;;;;;;;7.88;7.07;;;20.40;99.90;;;;;;5012100;28;20300;-65
2022/08/20 03:23:19;;;;;;;12.18;7.60;;;20.50;99.90;;;;;;5003035;28;20221;-66
2022/08/20 03:25:46;;;;;;;10.00;8.35;;;20.50;99.90;;;;;;5026956;28;20202;-64
2022/08/20 03:28:13;;;;;;;9.80;8.10;;;20.50;99.90;;;;;;5013432;28;20205;-66
2022/08/20 03:30:41;;;;;;;9.95;7.68;;;20.50;99.90;;;;;;5013023;28;20205;-64
2022/08/20 03:33:08;;;;;;;9.20;7.72;;;20.50;99.90;;;;;;5015534;28;20221;-64
2022/08/20 03:35:37;;;;;;;12.48;8.40;;;20.50;99.90;;;;;;5020889;28;20208;-65
2022/08/20 03:38:08;;;;;;;13.38;9.20;;;20.50;99.90;;;;;;4990824;28;20213;-70
2022/08/20 03:40:36;;;;;;;12.40;8.50;;;20.50;99.90;;;;;;5026225;28;20236;-65
2022/08/20 03:43:04;;;;;;;11.60;8.80;;;20.50;99.90;;;;;;5014385;28;20211;-64
2022/08/20 03:45:32;;;;;;;11.82;9.05;;;20.50;99.90;;;;;;5025006;28;20197;-66
2022/08/20 03:48:00;;;;;;;14.65;9.23;;;20.90;99.90;;;;;;5010298;28;20209;-65
2022/08/20 03:50:29;;;;;;;12.50;9.40;;;20.50;99.90;;;;;;5017625;28;20234;-65
2022/08/20 03:52:58;;;;;;;12.63;8.75;;;20.60;99.90;;;;;;5010532;28;20205;-65
2022/08/20 03:55:27;;;;;;;12.57;9.48;;;20.90;99.90;;;;;;4975765;28;20197;-66
2022/08/20 03:57:56;;;;;;;17.90;10.32;;;20.70;99.90;;;;;;5015796;28;20212;-65
2022/08/20 04:00:25;;;;;;;11.77;10.00;;;20.70;99.90;;;;;;5018258;28;20236;-66
2022/08/20 04:02:52;;;;;;;12.75;10.68;;;20.60;99.90;;;;;;5007865;28;20243;-65
2022/08/20 04:05:19;;;;;;;11.75;10.07;;;;;;;;;;5028281;28;20856;-65
2022/08/20 04:07:46;;;;;;;12.15;9.90;;;20.60;99.90;;;;;;5018535;28;20208;-65
2022/08/20 04:10:13;;;;;;;14.63;10.23;;;20.60;99.90;;;;;;5000472;28;20221;-65
2022/08/20 04:12:41;;;;;;;16.52;10.23;;;20.60;99.90;;;;;;5024145;28;20204;-64
2022/08/20 04:15:11;;;;;;;14.40;9.95;;;20.60;99.90;;;;;;5009705;28;20206;-65
2022/08/20 04:17:40;;;;;;;15.77;9.52;;;20.60;99.90;;;;;;5017997;28;20221;-65
2022/08/20 04:20:10;;;;;;;14.38;10.48;;;22.50;99.90;;;;;;5016130;28;20754;-66
2022/08/20 04:22:36;;;;;;;15.00;10.95;;;20.50;99.90;;;;;;5025850;28;20208;-65
2022/08/20 04:25:04;;;;;;;17.55;10.43;;;20.50;99.90;;;;;;4989894;28;20205;-66
2022/08/20 04:27:31;;;;;;;14.48;11.07;;;20.40;99.90;;;;;;5024476;28;20209;-66
2022/08/20 04:30:01;;;;;;;14.32;10.32;;;20.50;99.90;;;;;;5004013;28;20366;-66
2022/08/20 04:32:28;;;;;;;11.93;9.98;;;20.50;99.90;;;;;;5026939;28;20207;-65
2022/08/20 04:34:56;;;;;;;14.55;10.35;;;20.50;99.90;;;;;;5007512;28;20663;-65
2022/08/20 04:37:23;;;;;;;12.90;10.40;;;20.50;99.90;;;;;;5025899;28;20198;-65
2022/08/20 04:42:31;;;;;;;11.82;9.50;;;;;;;;;;5025985;28;20205;-65
2022/08/20 04:44:59;;;;;;;14.23;10.55;;;20.50;99.90;;;;;;5015006;28;20212;-66
2022/08/20 04:47:26;;;;;;;12.82;10.45;;;20.50;99.90;;;;;;5014706;28;20206;-66
2022/08/20 04:49:58;;;;;;;13.48;10.75;;;20.50;99.90;;;;;;5007133;28;20679;-65
2022/08/20 04:52:25;;;;;;;12.30;9.65;;;20.60;99.90;;;;;;5027690;28;20221;-65
2022/08/20 04:54:55;;;;;;;13.68;10.50;;;20.50;99.90;;;;;;5011758;28;20213;-66
2022/08/20 04:57:22;;;;;;;12.40;9.95;;;20.70;99.90;;;;;;5003765;28;20229;-66
2022/08/20 04:59:50;;;;;;;17.52;10.52;;;20.50;99.90;;;;;;5018674;28;20229;-65
2022/08/20 05:02:18;;;;;;;14.90;10.00;;;20.50;99.90;;;;;;5016065;28;20674;-65
2022/08/20 05:04:46;;;;;;;14.25;10.82;;;20.50;99.90;;;;;;5026501;28;20200;-65
2022/08/20 05:07:13;;;;;;;17.17;10.70;;;20.50;99.90;;;;;;5026038;28;20201;-66
2022/08/20 05:09:40;;;;;;;14.23;10.85;;;20.40;99.90;;;;;;5028860;28;20608;-65
2022/08/20 05:12:08;;;;;;;14.48;10.93;;;20.80;99.90;;;;;;5000935;28;20205;-64
2022/08/20 05:14:35;;;;;;;11.93;9.77;;;20.30;99.90;;;;;;5033344;28;20205;-65
2022/08/20 05:17:03;;;;;;;14.30;10.27;;;20.60;99.90;;;;;;5009953;28;21597;-66
2022/08/20 05:19:33;;;;;;;18.70;10.73;;;20.60;99.90;;;;;;5029041;28;20317;-65
2022/08/20 05:22:00;;;;;;;20.23;11.60;;;20.60;99.90;;;;;;5018936;28;20664;-65
2022/08/20 05:24:27;;;;;;;16.10;11.02;;;20.60;99.90;;;;;;5030180;28;20201;-65
2022/08/20 05:26:55;;;;;;;17.50;10.65;;;20.40;99.90;;;;;;4993726;28;20210;-65
2022/08/20 05:29:22;;;;;;;13.30;10.40;;;20.60;99.90;;;;;;5028374;28;20198;-65
2022/08/20 05:31:49;;;;;;;13.35;10.35;;;20.50;99.90;;;;;;5003825;28;20220;-64
2022/08/20 05:34:16;;;;;;;14.70;11.65;;;20.50;99.90;;;;;;5016527;28;20661;-65
2022/08/20 05:36:46;;;;;;;15.65;10.98;;;20.50;99.90;;;;;;5017118;28;20201;-65
2022/08/20 05:39:14;;;;;;;14.60;11.50;;;20.40;99.90;;;;;;5014229;28;20237;-65
2022/08/20 05:41:41;;;;;;;14.38;11.10;;;20.60;99.90;;;;;;5012349;28;20216;-65
2022/08/20 05:44:12;;;;;;;15.63;11.05;;;20.80;99.90;;;;;;5004897;28;20316;-65
2022/08/20 05:46:40;;;;;;;16.58;12.20;;;20.70;99.90;;;;;;5015645;28;20208;-65
2022/08/20 05:49:07;;;;;;;12.82;10.82;;;20.60;99.90;;;;;;5016385;28;20216;-65
2022/08/20 05:51:35;;;;;;;17.95;10.65;;;20.60;99.90;;;;;;5029389;28;20205;-65
2022/08/20 05:54:03;;;;;;;17.25;11.45;;;20.60;99.90;;;;;;5005128;28;20208;-65
2022/08/20 05:56:31;;;;;;;13.18;10.25;;;20.60;99.90;;;;;;5011273;28;20209;-65
2022/08/20 05:59:01;;;;;;;14.60;10.70;;;20.60;99.90;;;;;;5000546;28;20251;-65
2022/08/20 06:01:28;;;;;;;17.98;10.75;;;20.60;99.90;;;;;;5009368;28;20239;-65
2022/08/20 06:06:39;;;;;;;14.65;9.50;;;;;;;;;;5022617;28;20208;-65
2022/08/20 06:09:07;;;;;;;14.90;8.82;;;20.50;99.90;;;;;;5006189;28;20719;-66
2022/08/20 06:11:35;;;;;;;13.48;9.13;;;20.50;99.90;;;;;;5011123;28;20232;-65
2022/08/20 06:14:02;;;;;;;11.52;9.02;;;20.40;99.90;;;;;;4999294;28;20820;-65
2022/08/20 06:16:30;;;;;;;12.88;9.38;;;20.30;99.90;;;;;;5024715;28;21240;-65
2022/08/20 06:18:57;;;;;;;14.35;9.15;;;20.40;99.90;;;;;;5008256;28;20205;-64
2022/08/20 06:21:24;;;;;;;17.52;8.82;;;20.40;99.90;;;;;;5025363;28;20558;-66
2022/08/20 06:23:51;;;;;;;16.65;9.35;;;19.80;99.90;;;;;;5005166;28;20205;-65
2022/08/20 06:26:19;;;;;;;12.57;8.70;;;20.50;99.90;;;;;;5013239;28;21355;-65
2022/08/20 06:28:46;;;;;;;10.65;7.68;;;20.60;99.90;;;;;;5027899;28;20209;-65
2022/08/20 06:31:13;;;;;;;13.73;8.13;;;20.50;99.90;;;;;;5004578;28;20213;-65
2022/08/20 06:33:41;;;;;;;14.05;8.05;;;20.50;99.90;;;;;;5022298;28;20220;-65
2022/08/20 06:36:08;;;;;;;8.50;6.70;;;20.50;99.90;;;;;;5020164;28;20363;-65
2022/08/20 06:38:35;;;;;;;8.70;7.65;;;20.50;99.90;;;;;;5016124;28;20225;-65
2022/08/20 06:41:02;;;;;;;10.77;6.78;;;20.40;99.90;;;;;;5019655;28;21434;-65
2022/08/20 06:43:30;;;;;;;12.55;6.90;;;20.40;99.90;;;;;;5003852;28;20202;-65
2022/08/20 06:45:57;;;;;;;11.73;6.70;;;20.30;99.90;;;;;;4997450;28;20320;-65
2022/08/20 06:48:24;;;;;;;9.07;6.07;;;20.30;99.90;;;;;;5013866;28;21997;-65
2022/08/20 06:50:52;;;;;;;10.48;5.80;;;20.40;99.90;;;;;;5015384;28;20587;-65
2022/08/20 06:53:20;;;;;;;11.73;6.07;;;20.50;99.90;;;;;;5015942;28;20200;-66
2022/08/20 06:55:51;;;;;;;14.23;4.72;;;20.40;99.90;;;;;;5016008;28;20208;-65
2022/08/20 06:58:20;;;;;;;15.07;4.18;;;20.10;99.90;;;;;;5008371;28;20203;-65
2022/08/20 07:00:49;;;;;;;4.80;3.30;;;20.30;99.90;;;;;;5025281;28;20980;-65
2022/08/20 07:03:16;;;;;;;9.60;3.55;;;19.80;99.90;;;;;;4973068;28;20217;-66
2022/08/20 07:05:44;;;;;;;10.63;3.08;;;19.90;99.90;;;;;;5029389;28;20229;-66
2022/08/20 07:08:13;;;;;;;10.00;2.90;;;20.00;99.90;;;;;;4998582;28;20714;-65
2022/08/20 07:10:41;;;;;;;6.60;2.97;;;20.00;99.90;;;;;;5012950;28;20213;-65
2022/08/20 07:13:08;;;;;;;8.75;3.70;;;20.20;99.90;;;;;;4990846;28;20542;-65
2022/08/20 07:15:36;;;;;;;10.05;3.22;;;;;;;;;;5014146;28;20252;-65
2022/08/20 07:18:05;;;;;;;8.13;2.50;;;19.80;93.60;;;;;;4999436;28;20213;-65
2022/08/20 07:20:34;;;;;;;8.93;3.55;;;19.80;93.10;;;;;;5004386;28;20233;-65
2022/08/20 07:23:02;;;;;;;8.43;2.95;;;20.00;92.60;;;;;;5016805;28;20217;-65
2022/08/20 07:25:30;;;;;;;9.32;2.83;;;19.80;92.00;;;;;;5017750;28;20205;-65
2022/08/20 07:28:01;;;;;;;11.52;3.72;;;20.20;92.80;;;;;;5015438;28;20209;-65
2022/08/20 07:33:16;;;;;;;6.63;2.45;;;;;;;;;;4997045;28;20332;-65
2022/08/20 07:35:43;;;;;;;5.90;2.15;;;19.80;85.00;;;;;;5000759;28;20712;-64
2022/08/20 07:38:16;;;;;;;7.80;2.47;;;19.80;86.40;;;;;;5009241;28;20228;-64
2022/08/20 07:40:44;;;;;;;9.10;2.50;;;19.90;86.50;;;;;;5010617;28;20229;-64
2022/08/20 07:43:10;;;;;;;9.85;2.78;;;23.60;84.40;;;;;;4997384;28;20299;-64
2022/08/20 07:45:37;;;;;;;8.48;2.50;;;19.80;78.20;;;;;;5004880;28;20217;-64
2022/08/20 07:48:09;;;;;;;5.00;2.25;;;19.80;67.90;;;;;;5012910;28;20308;-65
2022/08/20 07:50:38;;;;;;;12.07;2.85;;;19.80;71.90;;;;;;4989871;28;20239;-64
2022/08/20 07:53:05;;;;;;;8.98;2.50;;;19.60;62.70;;;;;;5010881;28;20224;-65
2022/08/20 07:55:32;;;;;;;5.60;1.90;;;19.80;61.20;;;;;;5010328;28;20257;-65
2022/08/20 07:58:06;;;;;;;10.43;2.30;;;19.70;56.40;;;;;;5011842;28;20225;-64
2022/08/20 08:00:33;;;;;;;7.93;2.65;;;19.50;52.90;;;;;;5010837;28;20235;-64
2022/08/20 08:03:00;;;;;;;5.47;1.83;;;19.70;49.90;;;;;;5008841;28;20853;-65
2022/08/20 08:05:28;;;;;;;8.95;1.90;;;19.70;36.20;;;;;;4999890;28;20227;-64
2022/08/20 08:07:57;;;;;;;9.68;2.15;;;19.60;27.50;;;;;;4995885;28;20226;-64
2022/08/20 08:10:25;;;;;;;6.85;2.22;;;19.60;26.30;;;;;;5005346;28;20208;-65
2022/08/20 08:12:57;;;;;;;3.70;1.90;;;19.60;26.30;;;;;;5001499;28;20232;-65
2022/08/20 08:15:27;;;;;;;7.38;2.10;;;19.50;18.60;;;;;;5005247;28;20233;-65
2022/08/20 08:17:56;;;;;;;6.50;1.58;;;19.70;26.70;;;;;;5019603;28;21412;-64
2022/08/20 08:20:23;;;;;;;9.93;2.15;;;19.60;22.50;;;;;;5010502;28;20233;-64
2022/08/20 08:22:52;;;;;;;8.00;1.85;;;19.80;24.20;;;;;;4978520;28;20225;-64
2022/08/20 08:25:20;;;;;;;8.25;1.65;;;19.70;2.00;;;;;;5007594;28;20901;-63
2022/08/20 08:27:47;;;;;;;5.75;1.70;;;19.80;1.00;;;;;;5004639;28;20296;-64
2022/08/20 08:30:16;;;;;;;9.65;1.73;;;19.80;1.00;;;;;;5001958;28;21053;-63
2022/08/20 08:35:23;;;;;;;4.28;1.75;;;19.80;1.00;;;;;;5024964;28;20773;-64
2022/08/20 08:37:50;;;;;;;3.03;1.48;;;20.10;1.00;;;;;;4984521;28;20221;-64
2022/08/20 08:40:18;;;;;;;5.65;1.67;;;20.60;1.00;;;;;;4984629;28;20248;-64
2022/08/20 08:42:56;;;;;;;5.72;1.50;;;19.80;1.00;;;;;;5008456;28;20225;-64
2022/08/20 08:45:27;;;;;;;5.57;1.63;;;19.90;1.00;;;;;;4991851;28;20229;-64
2022/08/20 08:47:58;;;;;;;5.60;1.38;;;20.00;1.00;;;;;;4999939;28;20228;-64
2022/08/20 08:50:27;;;;;;;8.25;1.95;;;20.20;99.90;;;;;;5023991;28;20224;-63
2022/08/20 08:52:59;;;;;;;5.05;1.50;;;20.00;99.90;;;;;;4981303;28;20225;-64
2022/08/20 08:55:28;;;;;;;5.72;1.33;;;20.90;99.90;;;;;;5009937;28;20233;-64
2022/08/20 08:58:00;;;;;;;7.07;1.33;;;20.20;1.00;;;;;;4997286;28;20233;-64
2022/08/20 09:00:28;;;;;;;2.45;1.25;;;20.40;1.00;;;;;;4994387;28;20237;-64
2022/08/20 09:02:59;;;;;;;4.32;1.45;;;20.30;1.00;;;;;;4996860;28;20753;-64
2022/08/20 09:05:31;;;;;;;6.43;1.70;;;20.50;99.90;;;;;;5018536;28;20590;-63
2022/08/20 09:07:59;;;;;;;5.70;1.20;;;20.50;99.90;;;;;;4995580;28;21132;-64
2022/08/20 09:10:26;;;;;;;5.22;1.75;;;;;;;;;;4999728;28;20217;-63
2022/08/20 09:12:53;;;;;;;8.10;1.70;;;20.60;99.90;;;;;;5002526;28;20232;-64
2022/08/20 09:15:21;;;;;;;5.30;1.52;;;20.40;99.90;;;;;;5012751;28;20846;-63
2022/08/20 09:17:48;;;;;;;3.05;1.50;;;20.70;99.90;;;;;;4988403;28;21296;-64
2022/08/20 09:20:17;;;;;;;5.80;1.40;;;20.50;99.90;;;;;;5015988;28;20236;-63
2022/08/20 09:22:44;;;;;;;4.72;1.50;;;20.80;99.90;;;;;;4987557;28;21751;-64
2022/08/20 09:25:11;;;;;;;4.03;1.15;;;20.70;99.90;;;;;;4989559;28;20221;-64
2022/08/20 09:27:37;;;;;;;8.20;1.88;;;20.70;99.90;;;;;;5005194;28;20206;-63
2022/08/20 09:30:05;;;;;;;3.53;1.60;;;20.70;99.90;;;;;;4992218;28;20205;-64
2022/08/20 09:32:34;;;;;;;5.43;1.50;;;20.80;99.90;;;;;;4988206;28;20584;-62
2022/08/20 09:35:00;;;;;;;4.35;1.48;;;20.80;99.90;;;;;;5008059;28;20221;-62
2022/08/20 09:37:29;;;;;;;4.20;1.58;;;20.70;99.90;;;;;;5003333;28;20665;-63
2022/08/20 09:39:57;;;;;;;2.83;1.08;;;20.60;1.00;;;;;;4981846;28;20234;-63
2022/08/20 09:42:26;;;;;;;4.95;1.15;;;20.90;1.00;;;;;;4990844;28;20222;-64
2022/08/20 09:44:54;;;;;;;3.17;1.08;;;20.90;1.00;;;;;;4991616;28;20221;-63
2022/08/20 09:47:21;;;;;;;3.97;1.27;;;20.90;1.00;;;;;;4996422;28;20213;-64
2022/08/20 09:49:49;;;;;;;3.95;1.58;;;21.00;1.00;;;;;;5009274;28;20590;-63
2022/08/20 09:52:20;;;;;;;2.83;1.50;;;21.00;1.00;;;;;;5007984;28;20221;-64
2022/08/20 09:54:47;;;;;;;4.85;1.30;;;20.90;1.00;;;;;;4988330;28;20225;-64
2022/08/20 09:57:15;;;;;;;7.45;1.48;;;21.30;1.00;;;;;;4994986;28;21884;-64
2022/08/20 09:59:43;;;;;;;4.57;1.20;;;21.10;1.00;;;;;;4997039;28;20221;-63
2022/08/20 10:02:09;;;;;;;5.45;1.73;;;21.10;99.90;;;;;;4996498;28;20237;-64
2022/08/20 10:04:36;;;;;;;5.50;1.60;;;21.30;99.90;;;;;;4988529;28;20213;-64
2022/08/20 10:07:08;;;;;;;3.97;1.67;;;21.20;1.00;;;;;;5010556;28;20220;-63
2022/08/20 10:09:35;;;;;;;9.02;1.58;;;21.20;1.00;;;;;;4991905;28;20313;-63
2022/08/20 10:12:03;;;;;;;5.53;1.50;;;;;;;;;;5008330;28;20201;-64
2022/08/20 10:14:30;;;;;;;5.03;1.58;;;21.30;1.00;;;;;;4986301;28;20225;-63
2022/08/20 10:16:58;;;;;;;3.15;1.58;;;21.30;99.90;;;;;;4988858;28;20228;-63
2022/08/20 10:19:26;;;;;;;4.72;1.63;;;21.20;1.00;;;;;;4969878;28;20905;-63
2022/08/20 10:21:53;;;;;;;8.23;1.25;;;21.30;1.00;;;;;;4996829;28;20229;-64
2022/08/20 10:24:22;;;;;;;5.03;1.50;;;21.40;1.00;;;;;;4981263;28;20801;-64
2022/08/20 10:26:49;;;;;;;7.95;1.33;;;21.50;1.00;;;;;;5021891;28;20372;-63
2022/08/20 10:29:16;;;;;;;10.45;1.55;;;21.80;99.90;;;;;;4989216;28;20813;-64
2022/08/20 10:31:43;;;;;;;2.13;1.40;;;21.90;99.90;;;;;;5010232;28;21776;-64
2022/08/20 10:37:31;;;;;;;7.40;1.58;;;21.60;99.90;;;;;;5065771;27;20311;-62
2022/08/20 10:39:58;;;;;;;3.58;1.33;;;21.70;99.90;;;;;;5066515;27;20245;-62
2022/08/20 10:42:24;;;;;;;9.90;1.60;;;21.70;99.90;;;;;;5074283;27;20200;-63
2022/08/20 10:44:51;;;;;;;3.97;1.23;;;21.60;94.50;;;;;;5070142;27;20226;-64
2022/08/20 10:47:22;;;;;;;3.38;1.27;;;21.50;1.00;;;;;;5073474;28;20756;-64
2022/08/20 10:49:50;;;;;;;3.20;1.23;;;21.30;1.00;;;;;;5058383;28;22394;-64
2022/08/20 10:52:17;;;;;;;3.63;1.10;;;21.50;1.00;;;;;;5056397;28;20207;-62
2022/08/20 10:54:45;;;;;;;4.40;1.15;;;18.90;1.00;;;;;;5058367;27;20198;-63
2022/08/20 10:57:15;;;;;;;7.72;1.33;;;21.60;1.00;;;;;;5078541;27;20234;-63
2022/08/20 10:59:43;;;;;;;4.82;1.23;;;21.70;1.00;;;;;;5066147;27;20220;-63
2022/08/20 11:02:10;;;;;;;7.00;1.25;;;21.70;1.00;;;;;;5070353;27;20195;-63
2022/08/20 11:04:39;;;;;;;4.68;1.00;;;21.70;1.00;;;;;;5073824;28;20214;-64
2022/08/20 11:07:18;;;;;;;5.90;1.40;;;21.90;1.00;;;;;;5040455;28;20699;-63
2022/08/20 11:09:48;;;;;;;2.75;1.17;;;21.90;99.90;;;;;;5090171;28;20203;-63
2022/08/20 11:12:15;;;;;;;5.18;1.48;;;21.80;99.90;;;;;;5061431;27;20199;-63
2022/08/20 11:14:42;;;;;;;3.60;1.05;;;21.80;99.90;;;;;;5068162;27;20530;-63
2022/08/20 11:17:10;;;;;;;1.98;0.95;;;20.10;99.90;;;;;;5078743;28;20250;-64
2022/08/20 11:19:39;;;;;;;4.05;1.40;;;21.50;99.90;;;;;;5062374;28;20707;-62
2022/08/20 11:22:07;;;;;;;8.02;1.67;;;21.10;1.00;;;;;;5050066;28;20214;-63
2022/08/20 11:24:34;;;;;;;4.97;1.05;;;21.40;99.90;;;;;;5067797;28;20219;-63
2022/08/20 11:27:02;;;;;;;6.20;1.10;;;21.40;99.90;;;;;;5063869;27;20313;-62
2022/08/20 11:29:29;;;;;;;1.73;1.08;;;23.30;1.00;;;;;;5054467;27;20230;-63
2022/08/20 11:31:56;;;;;;;4.43;1.20;;;21.40;99.90;;;;;;5086600;27;20211;-63
2022/08/20 11:34:23;;;;;;;2.95;1.10;;;21.50;1.00;;;;;;5065191;28;20233;-63
2022/08/20 11:36:50;;;;;;;1.80;1.10;;;21.60;99.90;;;;;;5062914;28;20237;-63
2022/08/20 11:39:17;;;;;;;6.05;1.30;;;;;;;;;;5055662;28;20214;-63
2022/08/20 11:41:44;;;;;;;4.18;1.50;;;21.90;99.90;;;;;;5056283;28;20299;-62
2022/08/20 11:44:12;;;;;;;1.83;1.00;;;21.90;99.90;;;;;;5077269;27;20204;-63
2022/08/20 11:46:38;;;;;;;1.83;1.05;;;22.20;99.90;;;;;;5072411;28;20204;-63
2022/08/20 11:49:05;;;;;;;13.77;1.63;;;22.10;99.90;;;;;;5071687;28;20206;-63
2022/08/20 11:51:32;;;;;;;8.23;1.88;;;22.70;47.10;;;;;;5056817;28;20223;-62
2022/08/20 11:53:59;;;;;;;5.63;1.38;;;21.90;64.90;;;;;;5039633;28;20196;-63
2022/08/20 11:56:26;;;;;;;6.28;1.90;;;22.00;99.90;;;;;;5042772;28;25735;-63
2022/08/20 11:58:53;;;;;;;3.22;1.58;;;21.90;99.90;;;;;;5047543;28;20212;-62
2022/08/20 12:01:21;;;;;;;4.50;1.40;;;22.00;99.90;;;;;;5051426;28;20216;-63
2022/08/20 12:03:48;;;;;;;5.10;1.63;;;22.00;99.90;;;;;;5057357;28;20201;-62
2022/08/20 12:06:15;;;;;;;5.55;1.30;;;21.90;99.90;;;;;;5056163;28;20200;-62
2022/08/20 12:08:41;;;;;;;6.05;1.25;;;22.00;99.90;;;;;;5038461;28;20211;-63
2022/08/20 12:11:09;;;;;;;2.75;1.23;;;22.10;99.90;;;;;;5041115;28;21904;-63
2022/08/20 12:13:37;;;;;;;5.15;1.10;;;21.90;99.90;;;;;;5036700;28;20224;-63
2022/08/20 12:16:05;;;;;;;6.05;1.75;;;22.20;99.90;;;;;;5044414;28;20227;-64
2022/08/20 12:18:34;;;;;;;2.95;1.27;;;22.40;99.90;;;;;;5069162;28;21216;-63
2022/08/20 12:21:01;;;;;;;2.92;1.30;;;22.20;99.90;;;;;;5073032;28;20216;-63
2022/08/20 12:23:27;;;;;;;4.03;1.70;;;22.40;99.90;;;;;;5067987;28;20409;-64
2022/08/20 12:25:54;;;;;;;8.20;1.27;;;22.10;99.90;;;;;;5064155;28;21038;-63
2022/08/20 12:28:21;;;;;;;6.20;1.33;;;22.20;99.90;;;;;;5048506;28;20223;-62
2022/08/20 12:30:48;;;;;;;2.22;1.10;;;22.10;99.90;;;;;;5050955;28;20215;-62
2022/08/20 12:33:14;;;;;;;5.53;1.48;;;22.10;99.90;;;;;;5072502;28;20735;-63
2022/08/20 12:35:43;;;;;;;8.20;1.58;;;22.30;99.90;;;;;;5060760;28;20790;-62
2022/08/20 12:38:09;;;;;;;5.20;1.65;;;22.30;99.90;;;;;;5058014;28;20215;-62
2022/08/20 12:40:36;;;;;;;3.30;1.10;;;23.40;99.90;;;;;;5039639;28;21232;-63
2022/08/20 12:43:04;;;;;;;5.40;1.67;;;22.20;99.90;;;;;;5044640;28;20231;-62
2022/08/20 12:45:32;;;;;;;6.22;1.63;;;22.00;99.90;;;;;;5024797;28;20227;-62
2022/08/20 12:48:05;;;;;;;3.28;1.38;;;22.20;99.90;;;;;;5070067;28;20208;-64
2022/08/20 12:50:33;;;;;;;7.38;1.58;;;22.20;99.90;;;;;;5060699;28;20308;-64
2022/08/20 12:53:02;;;;;;;3.25;1.33;;;22.40;99.90;;;;;;5057098;28;20629;-62
2022/08/20 12:55:30;;;;;;;5.22;1.30;;;22.30;99.90;;;;;;5064541;28;20204;-63
2022/08/20 12:57:59;;;;;;;3.40;1.50;;;22.40;99.90;;;;;;5080277;28;20227;-63
2022/08/20 13:00:29;;;;;;;5.85;1.40;;;22.30;99.90;;;;;;5036161;28;20894;-63
2022/08/20 13:02:58;;;;;;;3.50;1.30;;;22.20;99.90;;;;;;5058623;28;20220;-63
2022/08/20 13:05:27;;;;;;;8.15;1.40;;;22.20;99.90;;;;;;5081387;28;20199;-64